Hauptseite
METAR-TAF:

METAR-TAF

Flughäfen :

Fliegerhorst Büchel

Büchel, Deutschland

Breite: 50-10N, Länge: 007-04E, Höhe: 478 m

Beobachtung

Neuester Wetterbericht von vor 29 Minuten, um 18:20 UTC
Wind 8 kt aus Ost
Temperatur 3°C
Luftfeuchtigkeit 81%
Luftdruck 1027 hPa
Sichtweite 10 km oder mehr

METAR: ETSB 161820Z AUTO 08008KT 9999 // ////// 03/00 Q1027 ///

Zeit: 19:49 (18:49 UTC)

Prognose

Neuester Wetterbericht von vor 7 Stunden und 49 Minuten, um 11:00 UTC
Gültige Prognose vom 16 um 11 UTC bis 16 um 18 UTC
Wind 10 kt aus Ost
Sichtweite: 1120 m
Leicht bewölkt in der Höhe von 30000 ft

TAF: ETSB 161100Z 1611/1618 08010KT 9999 NSW FEW300 CANCEL 1120 BY ETGL

Wetterbeobachtungen und Prognosen von mehr als 4000 Flughäfen (METAR und TAF Bericht).

Die verfügbaren Stationen werden durch gelbe und rote Markierungen auf der Karte dargestellt.

Führen Sie die Maus auf sie, um den Namen der Station zu sehen.

Darauf klicken, um die Beobachtung von Wetterbeobachtungen und Prognosen zu sehen.

Um die Karte zu ändern : klicken Sie auf den grünen Tasten mit einem schwarzen Kreuz Zum Vergrößern, auf den grünen Button mit einem Gedankenstrich zu verkleinern, oder auf die grünen Pfeile für benachbarte Karten.


METAR-TAF: